sensor_id;sensor_type;location;lat;lon;timestamp;P1;durP1;ratioP1;P2;durP2;ratioP2
20423;SDS011;10371;49.042;8.002;2023-04-01T00:00:07;2.80;;;1.40;;
20423;SDS011;10371;49.042;8.002;2023-04-01T00:01:09;6.00;;;1.70;;
20423;SDS011;10371;49.042;8.002;2023-04-01T00:02:13;5.10;;;2.40;;
20423;SDS011;10371;49.042;8.002;2023-04-01T00:03:13;3.87;;;2.33;;
20423;SDS011;10371;49.042;8.002;2023-04-01T00:04:14;6.80;;;2.30;;
20423;SDS011;10371;49.042;8.002;2023-04-01T00:05:15;3.83;;;2.40;;
20423;SDS011;10371;49.042;8.002;2023-04-01T00:06:17;7.23;;;2.50;;
20423;SDS011;10371;49.042;8.002;2023-04-01T00:07:17;5.33;;;2.43;;
20423;SDS011;10371;49.042;8.002;2023-04-01T00:08:18;4.60;;;1.93;;
20423;SDS011;10371;49.042;8.002;2023-04-01T00:09:18;4.60;;;1.87;;
20423;SDS011;10371;49.042;8.002;2023-04-01T00:10:19;5.67;;;2.33;;
20423;SDS011;10371;49.042;8.002;2023-04-01T00:11:19;3.20;;;2.10;;
20423;SDS011;10371;49.042;8.002;2023-04-01T00:12:20;3.73;;;1.83;;
20423;SDS011;10371;49.042;8.002;2023-04-01T00:13:21;4.07;;;2.27;;
20423;SDS011;10371;49.042;8.002;2023-04-01T00:14:21;3.27;;;2.23;;
20423;SDS011;10371;49.042;8.002;2023-04-01T00:15:22;3.80;;;2.20;;
20423;SDS011;10371;49.042;8.002;2023-04-01T00:16:22;5.17;;;2.13;;
20423;SDS011;10371;49.042;8.002;2023-04-01T00:17:22;4.10;;;2.03;;
20423;SDS011;10371;49.042;8.002;2023-04-01T00:18:23;4.63;;;2.40;;
20423;SDS011;10371;49.042;8.002;2023-04-01T00:19:24;3.43;;;2.00;;
20423;SDS011;10371;49.042;8.002;2023-04-01T00:20:24;3.73;;;2.00;;
20423;SDS011;10371;49.042;8.002;2023-04-01T00:21:25;3.77;;;2.07;;
20423;SDS011;10371;49.042;8.002;2023-04-01T00:22:26;4.07;;;1.83;;
20423;SDS011;10371;49.042;8.002;2023-04-01T00:23:27;4.47;;;2.10;;
20423;SDS011;10371;49.042;8.002;2023-04-01T00:24:27;5.57;;;2.30;;
20423;SDS011;10371;49.042;8.002;2023-04-01T00:25:27;7.10;;;2.80;;
20423;SDS011;10371;49.042;8.002;2023-04-01T00:26:28;3.33;;;1.80;;
20423;SDS011;10371;49.042;8.002;2023-04-01T00:27:28;7.30;;;2.23;;
20423;SDS011;10371;49.042;8.002;2023-04-01T00:28:29;3.20;;;2.00;;
20423;SDS011;10371;49.042;8.002;2023-04-01T00:29:30;2.53;;;1.73;;
20423;SDS011;10371;49.042;8.002;2023-04-01T00:30:30;2.07;;;1.47;;
20423;SDS011;10371;49.042;8.002;2023-04-01T00:31:30;3.63;;;1.30;;
20423;SDS011;10371;49.042;8.002;2023-04-01T00:32:31;1.83;;;1.10;;
20423;SDS011;10371;49.042;8.002;2023-04-01T00:33:31;2.57;;;1.50;;
20423;SDS011;10371;49.042;8.002;2023-04-01T00:34:32;2.67;;;1.17;;
20423;SDS011;10371;49.042;8.002;2023-04-01T00:35:32;3.63;;;1.10;;
20423;SDS011;10371;49.042;8.002;2023-04-01T00:36:32;2.90;;;1.37;;
20423;SDS011;10371;49.042;8.002;2023-04-01T00:37:34;3.13;;;1.43;;
20423;SDS011;10371;49.042;8.002;2023-04-01T00:38:37;3.47;;;1.30;;
20423;SDS011;10371;49.042;8.002;2023-04-01T00:39:38;3.40;;;1.20;;
20423;SDS011;10371;49.042;8.002;2023-04-01T00:40:39;4.33;;;1.40;;
20423;SDS011;10371;49.042;8.002;2023-04-01T00:41:42;2.53;;;1.30;;
20423;SDS011;10371;49.042;8.002;2023-04-01T00:42:42;4.80;;;1.67;;
20423;SDS011;10371;49.042;8.002;2023-04-01T00:43:44;3.03;;;1.13;;
20423;SDS011;10371;49.042;8.002;2023-04-01T00:44:50;3.93;;;1.50;;
20423;SDS011;10371;49.042;8.002;2023-04-01T00:45:52;3.83;;;1.53;;
20423;SDS011;10371;49.042;8.002;2023-04-01T00:46:52;3.53;;;1.40;;
20423;SDS011;10371;49.042;8.002;2023-04-01T00:47:53;4.23;;;1.50;;
20423;SDS011;10371;49.042;8.002;2023-04-01T00:48:54;3.30;;;1.70;;
20423;SDS011;10371;49.042;8.002;2023-04-01T00:49:55;3.60;;;1.70;;
20423;SDS011;10371;49.042;8.002;2023-04-01T00:51:12;3.07;;;1.50;;
20423;SDS011;10371;49.042;8.002;2023-04-01T00:52:17;5.57;;;1.80;;
20423;SDS011;10371;49.042;8.002;2023-04-01T00:53:22;2.87;;;1.57;;
20423;SDS011;10371;49.042;8.002;2023-04-01T00:54:24;4.97;;;1.63;;
20423;SDS011;10371;49.042;8.002;2023-04-01T00:55:27;3.73;;;1.33;;
20423;SDS011;10371;49.042;8.002;2023-04-01T00:57:35;3.13;;;1.30;;
20423;SDS011;10371;49.042;8.002;2023-04-01T00:58:39;4.63;;;1.77;;
20423;SDS011;10371;49.042;8.002;2023-04-01T00:59:45;4.43;;;1.70;;
20423;SDS011;10371;49.042;8.002;2023-04-01T01:00:47;3.47;;;1.40;;
20423;SDS011;10371;49.042;8.002;2023-04-01T01:01:50;4.00;;;1.53;;
20423;SDS011;10371;49.042;8.002;2023-04-01T01:02:51;4.35;;;1.88;;
20423;SDS011;10371;49.042;8.002;2023-04-01T01:03:52;2.87;;;1.40;;
20423;SDS011;10371;49.042;8.002;2023-04-01T01:04:52;3.60;;;1.50;;
20423;SDS011;10371;49.042;8.002;2023-04-01T01:06:08;2.93;;;1.30;;
20423;SDS011;10371;49.042;8.002;2023-04-01T01:07:13;2.77;;;1.27;;
20423;SDS011;10371;49.042;8.002;2023-04-01T01:11:22;2.87;;;1.60;;
20423;SDS011;10371;49.042;8.002;2023-04-01T01:15:18;3.03;;;1.23;;
20423;SDS011;10371;49.042;8.002;2023-04-01T01:16:29;4.90;;;1.40;;
20423;SDS011;10371;49.042;8.002;2023-04-01T01:19:08;3.30;;;1.30;;
20423;SDS011;10371;49.042;8.002;2023-04-01T01:22:52;3.73;;;1.47;;
20423;SDS011;10371;49.042;8.002;2023-04-01T01:24:13;4.57;;;1.63;;
20423;SDS011;10371;49.042;8.002;2023-04-01T01:25:54;4.37;;;1.23;;
20423;SDS011;10371;49.042;8.002;2023-04-01T01:27:04;4.07;;;1.60;;
20423;SDS011;10371;49.042;8.002;2023-04-01T01:28:17;4.53;;;1.63;;
20423;SDS011;10371;49.042;8.002;2023-04-01T01:29:37;3.33;;;1.33;;
20423;SDS011;10371;49.042;8.002;2023-04-01T01:30:57;3.60;;;1.30;;
20423;SDS011;10371;49.042;8.002;2023-04-01T01:32:03;3.93;;;1.43;;
20423;SDS011;10371;49.042;8.002;2023-04-01T01:36:29;4.63;;;1.70;;
20423;SDS011;10371;49.042;8.002;2023-04-01T01:37:34;4.03;;;1.57;;
20423;SDS011;10371;49.042;8.002;2023-04-01T01:38:37;3.83;;;1.53;;
20423;SDS011;10371;49.042;8.002;2023-04-01T01:39:38;2.90;;;1.30;;
20423;SDS011;10371;49.042;8.002;2023-04-01T01:40:41;3.07;;;1.50;;
20423;SDS011;10371;49.042;8.002;2023-04-01T01:41:44;5.23;;;1.60;;
20423;SDS011;10371;49.042;8.002;2023-04-01T01:42:50;4.17;;;1.80;;
20423;SDS011;10371;49.042;8.002;2023-04-01T01:43:54;4.20;;;1.53;;
20423;SDS011;10371;49.042;8.002;2023-04-01T01:44:58;3.23;;;1.40;;
20423;SDS011;10371;49.042;8.002;2023-04-01T01:46:02;1.63;;;1.10;;
20423;SDS011;10371;49.042;8.002;2023-04-01T01:47:08;2.80;;;1.43;;
20423;SDS011;10371;49.042;8.002;2023-04-01T01:48:09;3.53;;;1.67;;
20423;SDS011;10371;49.042;8.002;2023-04-01T01:49:11;2.47;;;1.60;;
20423;SDS011;10371;49.042;8.002;2023-04-01T01:50:14;2.60;;;1.20;;
20423;SDS011;10371;49.042;8.002;2023-04-01T01:51:16;3.43;;;1.30;;
20423;SDS011;10371;49.042;8.002;2023-04-01T01:52:18;2.87;;;1.50;;
20423;SDS011;10371;49.042;8.002;2023-04-01T01:53:19;4.10;;;1.60;;
20423;SDS011;10371;49.042;8.002;2023-04-01T01:54:19;3.47;;;1.55;;
20423;SDS011;10371;49.042;8.002;2023-04-01T01:55:23;2.60;;;1.20;;
20423;SDS011;10371;49.042;8.002;2023-04-01T01:56:29;3.70;;;1.23;;
20423;SDS011;10371;49.042;8.002;2023-04-01T01:57:34;3.20;;;1.47;;
20423;SDS011;10371;49.042;8.002;2023-04-01T01:58:39;2.20;;;1.30;;
20423;SDS011;10371;49.042;8.002;2023-04-01T01:59:43;2.40;;;1.20;;
20423;SDS011;10371;49.042;8.002;2023-04-01T02:01:04;3.73;;;1.67;;
20423;SDS011;10371;49.042;8.002;2023-04-01T02:02:10;4.73;;;1.37;;
20423;SDS011;10371;49.042;8.002;2023-04-01T02:03:12;2.43;;;1.13;;
20423;SDS011;10371;49.042;8.002;2023-04-01T02:04:14;4.63;;;1.20;;
20423;SDS011;10371;49.042;8.002;2023-04-01T02:05:19;3.27;;;1.17;;
20423;SDS011;10371;49.042;8.002;2023-04-01T02:06:22;3.67;;;1.50;;
20423;SDS011;10371;49.042;8.002;2023-04-01T02:07:27;4.97;;;1.80;;
20423;SDS011;10371;49.042;8.002;2023-04-01T02:08:53;3.50;;;1.47;;
20423;SDS011;10371;49.042;8.002;2023-04-01T02:09:54;3.47;;;1.40;;
20423;SDS011;10371;49.042;8.002;2023-04-01T02:10:56;3.20;;;1.47;;
20423;SDS011;10371;49.042;8.002;2023-04-01T02:12:07;4.47;;;1.40;;
20423;SDS011;10371;49.042;8.002;2023-04-01T02:13:21;2.97;;;1.30;;
20423;SDS011;10371;49.042;8.002;2023-04-01T02:14:26;4.20;;;1.37;;
20423;SDS011;10371;49.042;8.002;2023-04-01T02:15:36;2.33;;;1.20;;
20423;SDS011;10371;49.042;8.002;2023-04-01T02:18:07;4.00;;;1.50;;
20423;SDS011;10371;49.042;8.002;2023-04-01T02:19:08;3.17;;;1.40;;
20423;SDS011;10371;49.042;8.002;2023-04-01T02:20:13;2.67;;;1.60;;
20423;SDS011;10371;49.042;8.002;2023-04-01T02:21:17;4.00;;;1.63;;
20423;SDS011;10371;49.042;8.002;2023-04-01T02:22:24;2.63;;;1.30;;
20423;SDS011;10371;49.042;8.002;2023-04-01T02:23:27;3.03;;;1.23;;
20423;SDS011;10371;49.042;8.002;2023-04-01T02:24:28;3.67;;;1.57;;
20423;SDS011;10371;49.042;8.002;2023-04-01T02:25:33;1.80;;;1.20;;
20423;SDS011;10371;49.042;8.002;2023-04-01T02:26:36;2.60;;;1.40;;
20423;SDS011;10371;49.042;8.002;2023-04-01T02:27:36;3.40;;;1.30;;
20423;SDS011;10371;49.042;8.002;2023-04-01T02:28:38;3.30;;;1.60;;
20423;SDS011;10371;49.042;8.002;2023-04-01T02:29:40;2.17;;;1.23;;
20423;SDS011;10371;49.042;8.002;2023-04-01T02:30:40;4.00;;;1.67;;
20423;SDS011;10371;49.042;8.002;2023-04-01T02:31:42;3.65;;;1.60;;
20423;SDS011;10371;49.042;8.002;2023-04-01T02:32:43;2.83;;;1.20;;
20423;SDS011;10371;49.042;8.002;2023-04-01T02:33:46;4.13;;;1.43;;
20423;SDS011;10371;49.042;8.002;2023-04-01T02:34:47;2.90;;;1.37;;
20423;SDS011;10371;49.042;8.002;2023-04-01T02:35:48;4.67;;;1.43;;
20423;SDS011;10371;49.042;8.002;2023-04-01T02:36:49;3.30;;;1.23;;
20423;SDS011;10371;49.042;8.002;2023-04-01T02:37:50;3.20;;;1.27;;
20423;SDS011;10371;49.042;8.002;2023-04-01T02:38:53;2.27;;;1.20;;
20423;SDS011;10371;49.042;8.002;2023-04-01T02:39:58;3.20;;;1.37;;
20423;SDS011;10371;49.042;8.002;2023-04-01T02:41:00;2.57;;;1.20;;
20423;SDS011;10371;49.042;8.002;2023-04-01T02:42:02;2.67;;;1.30;;
20423;SDS011;10371;49.042;8.002;2023-04-01T02:43:03;2.40;;;1.10;;
20423;SDS011;10371;49.042;8.002;2023-04-01T02:44:03;3.07;;;1.40;;
20423;SDS011;10371;49.042;8.002;2023-04-01T02:45:04;3.07;;;1.43;;
20423;SDS011;10371;49.042;8.002;2023-04-01T02:46:06;4.30;;;1.47;;
20423;SDS011;10371;49.042;8.002;2023-04-01T02:47:07;2.47;;;1.60;;
20423;SDS011;10371;49.042;8.002;2023-04-01T02:48:07;4.07;;;1.43;;
20423;SDS011;10371;49.042;8.002;2023-04-01T02:49:08;2.53;;;1.10;;
20423;SDS011;10371;49.042;8.002;2023-04-01T02:50:08;4.70;;;1.47;;
20423;SDS011;10371;49.042;8.002;2023-04-01T02:51:09;4.43;;;1.33;;
20423;SDS011;10371;49.042;8.002;2023-04-01T02:52:09;2.27;;;1.30;;
20423;SDS011;10371;49.042;8.002;2023-04-01T02:53:09;3.57;;;1.50;;
20423;SDS011;10371;49.042;8.002;2023-04-01T02:54:09;5.57;;;1.80;;
20423;SDS011;10371;49.042;8.002;2023-04-01T02:55:10;5.23;;;1.80;;
20423;SDS011;10371;49.042;8.002;2023-04-01T02:56:10;3.80;;;1.13;;
20423;SDS011;10371;49.042;8.002;2023-04-01T02:57:10;4.70;;;1.63;;
20423;SDS011;10371;49.042;8.002;2023-04-01T02:58:11;4.00;;;1.37;;
20423;SDS011;10371;49.042;8.002;2023-04-01T02:59:11;2.17;;;1.20;;
20423;SDS011;10371;49.042;8.002;2023-04-01T03:00:12;4.63;;;1.73;;
20423;SDS011;10371;49.042;8.002;2023-04-01T03:01:13;3.80;;;1.40;;
20423;SDS011;10371;49.042;8.002;2023-04-01T03:02:14;4.30;;;1.40;;
20423;SDS011;10371;49.042;8.002;2023-04-01T03:03:14;3.37;;;1.53;;
20423;SDS011;10371;49.042;8.002;2023-04-01T03:04:15;3.53;;;1.30;;
20423;SDS011;10371;49.042;8.002;2023-04-01T03:05:15;4.13;;;1.70;;
20423;SDS011;10371;49.042;8.002;2023-04-01T03:06:16;1.90;;;1.33;;
20423;SDS011;10371;49.042;8.002;2023-04-01T03:07:17;3.07;;;1.30;;
20423;SDS011;10371;49.042;8.002;2023-04-01T03:08:17;5.47;;;1.70;;
20423;SDS011;10371;49.042;8.002;2023-04-01T03:09:17;4.47;;;1.70;;
20423;SDS011;10371;49.042;8.002;2023-04-01T03:10:17;1.90;;;1.60;;
20423;SDS011;10371;49.042;8.002;2023-04-01T03:11:18;3.40;;;1.57;;
20423;SDS011;10371;49.042;8.002;2023-04-01T03:12:18;5.77;;;1.50;;
20423;SDS011;10371;49.042;8.002;2023-04-01T03:13:18;3.70;;;1.77;;
20423;SDS011;10371;49.042;8.002;2023-04-01T03:14:19;4.40;;;1.43;;
20423;SDS011;10371;49.042;8.002;2023-04-01T03:15:19;2.97;;;1.43;;
20423;SDS011;10371;49.042;8.002;2023-04-01T03:16:19;4.43;;;1.42;;
20423;SDS011;10371;49.042;8.002;2023-04-01T03:17:20;3.33;;;1.40;;
20423;SDS011;10371;49.042;8.002;2023-04-01T03:18:20;5.07;;;2.10;;
20423;SDS011;10371;49.042;8.002;2023-04-01T03:19:20;2.63;;;1.40;;
20423;SDS011;10371;49.042;8.002;2023-04-01T03:20:20;6.50;;;1.90;;
20423;SDS011;10371;49.042;8.002;2023-04-01T03:21:22;5.50;;;1.63;;
20423;SDS011;10371;49.042;8.002;2023-04-01T03:22:23;2.93;;;1.60;;
20423;SDS011;10371;49.042;8.002;2023-04-01T03:23:24;3.83;;;1.63;;
20423;SDS011;10371;49.042;8.002;2023-04-01T03:24:24;4.37;;;1.53;;
20423;SDS011;10371;49.042;8.002;2023-04-01T03:25:25;6.90;;;2.23;;
20423;SDS011;10371;49.042;8.002;2023-04-01T03:26:25;3.30;;;1.70;;
20423;SDS011;10371;49.042;8.002;2023-04-01T03:27:27;3.63;;;1.47;;
20423;SDS011;10371;49.042;8.002;2023-04-01T03:28:27;5.87;;;1.77;;
20423;SDS011;10371;49.042;8.002;2023-04-01T03:29:27;2.67;;;1.50;;
20423;SDS011;10371;49.042;8.002;2023-04-01T03:30:28;2.87;;;1.67;;
20423;SDS011;10371;49.042;8.002;2023-04-01T03:31:31;4.23;;;1.67;;
20423;SDS011;10371;49.042;8.002;2023-04-01T03:32:31;5.47;;;1.60;;
20423;SDS011;10371;49.042;8.002;2023-04-01T03:33:32;4.67;;;1.80;;
20423;SDS011;10371;49.042;8.002;2023-04-01T03:34:32;4.27;;;1.80;;
20423;SDS011;10371;49.042;8.002;2023-04-01T03:35:33;3.53;;;1.63;;
20423;SDS011;10371;49.042;8.002;2023-04-01T03:36:35;3.40;;;1.67;;
20423;SDS011;10371;49.042;8.002;2023-04-01T03:37:36;6.43;;;1.80;;
20423;SDS011;10371;49.042;8.002;2023-04-01T03:38:36;3.80;;;1.63;;
20423;SDS011;10371;49.042;8.002;2023-04-01T03:39:37;4.87;;;1.80;;
20423;SDS011;10371;49.042;8.002;2023-04-01T03:40:37;3.77;;;1.63;;
20423;SDS011;10371;49.042;8.002;2023-04-01T03:41:41;4.70;;;1.73;;
20423;SDS011;10371;49.042;8.002;2023-04-01T03:42:42;4.77;;;2.20;;
20423;SDS011;10371;49.042;8.002;2023-04-01T03:43:42;6.70;;;1.93;;
20423;SDS011;10371;49.042;8.002;2023-04-01T03:44:43;2.63;;;1.37;;
20423;SDS011;10371;49.042;8.002;2023-04-01T03:45:47;3.80;;;1.60;;
20423;SDS011;10371;49.042;8.002;2023-04-01T03:46:50;4.73;;;1.70;;
20423;SDS011;10371;49.042;8.002;2023-04-01T03:47:50;3.97;;;1.90;;
20423;SDS011;10371;49.042;8.002;2023-04-01T03:48:51;5.57;;;1.80;;
20423;SDS011;10371;49.042;8.002;2023-04-01T03:49:51;2.30;;;1.33;;
20423;SDS011;10371;49.042;8.002;2023-04-01T03:50:51;3.27;;;1.47;;
20423;SDS011;10371;49.042;8.002;2023-04-01T03:51:52;5.33;;;2.07;;
20423;SDS011;10371;49.042;8.002;2023-04-01T03:52:52;4.63;;;1.60;;
20423;SDS011;10371;49.042;8.002;2023-04-01T03:53:52;3.67;;;1.60;;
20423;SDS011;10371;49.042;8.002;2023-04-01T03:54:53;5.07;;;1.90;;
20423;SDS011;10371;49.042;8.002;2023-04-01T03:55:53;4.00;;;2.10;;
20423;SDS011;10371;49.042;8.002;2023-04-01T03:56:53;3.37;;;2.07;;
20423;SDS011;10371;49.042;8.002;2023-04-01T03:57:54;3.00;;;1.70;;
20423;SDS011;10371;49.042;8.002;2023-04-01T03:58:55;4.23;;;2.03;;
20423;SDS011;10371;49.042;8.002;2023-04-01T03:59:55;4.83;;;1.70;;
20423;SDS011;10371;49.042;8.002;2023-04-01T04:00:55;3.20;;;1.50;;
20423;SDS011;10371;49.042;8.002;2023-04-01T04:01:56;3.43;;;1.60;;
20423;SDS011;10371;49.042;8.002;2023-04-01T04:02:56;5.23;;;1.60;;
20423;SDS011;10371;49.042;8.002;2023-04-01T04:03:57;4.60;;;2.00;;
20423;SDS011;10371;49.042;8.002;2023-04-01T04:04:58;5.20;;;1.70;;
20423;SDS011;10371;49.042;8.002;2023-04-01T04:05:58;3.63;;;1.70;;
20423;SDS011;10371;49.042;8.002;2023-04-01T04:06:58;7.10;;;1.87;;
20423;SDS011;10371;49.042;8.002;2023-04-01T04:07:59;2.40;;;1.70;;
20423;SDS011;10371;49.042;8.002;2023-04-01T04:08:59;4.33;;;1.60;;
20423;SDS011;10371;49.042;8.002;2023-04-01T04:09:59;3.70;;;1.60;;
20423;SDS011;10371;49.042;8.002;2023-04-01T04:11:00;4.10;;;1.43;;
20423;SDS011;10371;49.042;8.002;2023-04-01T04:12:00;4.15;;;1.60;;
20423;SDS011;10371;49.042;8.002;2023-04-01T04:13:00;6.77;;;1.80;;
20423;SDS011;10371;49.042;8.002;2023-04-01T04:14:01;3.47;;;1.50;;
20423;SDS011;10371;49.042;8.002;2023-04-01T04:15:02;2.67;;;1.27;;
20423;SDS011;10371;49.042;8.002;2023-04-01T04:16:02;3.45;;;1.65;;
20423;SDS011;10371;49.042;8.002;2023-04-01T04:17:03;3.15;;;1.60;;
20423;SDS011;10371;49.042;8.002;2023-04-01T04:18:03;3.67;;;1.83;;
20423;SDS011;10371;49.042;8.002;2023-04-01T04:19:04;3.42;;;1.52;;
20423;SDS011;10371;49.042;8.002;2023-04-01T04:20:05;3.97;;;1.77;;
20423;SDS011;10371;49.042;8.002;2023-04-01T04:21:05;4.03;;;1.60;;
20423;SDS011;10371;49.042;8.002;2023-04-01T04:22:06;4.43;;;1.67;;
20423;SDS011;10371;49.042;8.002;2023-04-01T04:23:06;4.00;;;1.57;;
20423;SDS011;10371;49.042;8.002;2023-04-01T04:24:06;2.37;;;1.40;;
20423;SDS011;10371;49.042;8.002;2023-04-01T04:25:07;4.57;;;1.53;;
20423;SDS011;10371;49.042;8.002;2023-04-01T04:26:09;3.08;;;1.55;;
20423;SDS011;10371;49.042;8.002;2023-04-01T04:27:11;3.63;;;2.10;;
20423;SDS011;10371;49.042;8.002;2023-04-01T04:28:11;4.07;;;1.77;;
20423;SDS011;10371;49.042;8.002;2023-04-01T04:29:11;3.13;;;1.90;;
20423;SDS011;10371;49.042;8.002;2023-04-01T04:30:12;2.23;;;1.30;;
20423;SDS011;10371;49.042;8.002;2023-04-01T04:31:13;3.97;;;1.47;;
20423;SDS011;10371;49.042;8.002;2023-04-01T04:32:19;4.07;;;1.73;;
20423;SDS011;10371;49.042;8.002;2023-04-01T04:33:20;4.83;;;1.47;;
20423;SDS011;10371;49.042;8.002;2023-04-01T04:34:21;4.73;;;1.63;;
20423;SDS011;10371;49.042;8.002;2023-04-01T04:35:22;4.20;;;1.77;;
20423;SDS011;10371;49.042;8.002;2023-04-01T04:36:22;3.43;;;1.30;;
20423;SDS011;10371;49.042;8.002;2023-04-01T04:37:22;3.13;;;1.70;;
20423;SDS011;10371;49.042;8.002;2023-04-01T04:38:23;4.27;;;1.80;;
20423;SDS011;10371;49.042;8.002;2023-04-01T04:39:24;2.77;;;1.73;;
20423;SDS011;10371;49.042;8.002;2023-04-01T04:40:25;5.17;;;1.67;;
20423;SDS011;10371;49.042;8.002;2023-04-01T04:41:25;4.27;;;1.67;;
20423;SDS011;10371;49.042;8.002;2023-04-01T04:42:25;3.30;;;1.90;;
20423;SDS011;10371;49.042;8.002;2023-04-01T04:43:26;4.10;;;1.60;;
20423;SDS011;10371;49.042;8.002;2023-04-01T04:44:26;4.60;;;1.90;;
20423;SDS011;10371;49.042;8.002;2023-04-01T04:45:26;3.43;;;1.50;;
20423;SDS011;10371;49.042;8.002;2023-04-01T04:46:27;2.37;;;1.43;;
20423;SDS011;10371;49.042;8.002;2023-04-01T04:47:27;3.57;;;1.40;;
20423;SDS011;10371;49.042;8.002;2023-04-01T04:48:27;3.83;;;1.70;;
20423;SDS011;10371;49.042;8.002;2023-04-01T04:49:28;3.30;;;1.65;;
20423;SDS011;10371;49.042;8.002;2023-04-01T04:50:28;3.77;;;1.47;;
20423;SDS011;10371;49.042;8.002;2023-04-01T04:51:28;4.33;;;1.60;;
20423;SDS011;10371;49.042;8.002;2023-04-01T04:52:29;3.83;;;2.03;;
20423;SDS011;10371;49.042;8.002;2023-04-01T04:53:29;4.77;;;2.30;;
20423;SDS011;10371;49.042;8.002;2023-04-01T04:54:30;7.70;;;3.57;;
20423;SDS011;10371;49.042;8.002;2023-04-01T04:55:30;5.93;;;3.50;;
20423;SDS011;10371;49.042;8.002;2023-04-01T04:56:30;5.73;;;3.67;;
20423;SDS011;10371;49.042;8.002;2023-04-01T04:57:31;7.40;;;5.10;;
20423;SDS011;10371;49.042;8.002;2023-04-01T04:58:31;6.23;;;3.50;;
20423;SDS011;10371;49.042;8.002;2023-04-01T04:59:32;7.73;;;5.77;;
20423;SDS011;10371;49.042;8.002;2023-04-01T05:00:32;5.07;;;3.90;;
20423;SDS011;10371;49.042;8.002;2023-04-01T05:01:33;6.83;;;3.67;;
20423;SDS011;10371;49.042;8.002;2023-04-01T05:02:33;5.15;;;3.13;;
20423;SDS011;10371;49.042;8.002;2023-04-01T05:03:34;6.83;;;4.57;;
20423;SDS011;10371;49.042;8.002;2023-04-01T05:04:35;4.53;;;2.28;;
20423;SDS011;10371;49.042;8.002;2023-04-01T05:05:36;3.90;;;2.53;;
20423;SDS011;10371;49.042;8.002;2023-04-01T05:06:37;6.90;;;2.87;;
20423;SDS011;10371;49.042;8.002;2023-04-01T05:07:37;3.53;;;2.30;;
20423;SDS011;10371;49.042;8.002;2023-04-01T05:08:37;2.27;;;1.90;;
20423;SDS011;10371;49.042;8.002;2023-04-01T05:09:39;2.83;;;2.10;;
20423;SDS011;10371;49.042;8.002;2023-04-01T05:10:39;4.17;;;1.97;;
20423;SDS011;10371;49.042;8.002;2023-04-01T05:11:39;4.80;;;1.87;;
20423;SDS011;10371;49.042;8.002;2023-04-01T05:12:40;3.67;;;2.50;;
20423;SDS011;10371;49.042;8.002;2023-04-01T05:13:40;5.77;;;2.33;;
20423;SDS011;10371;49.042;8.002;2023-04-01T05:14:41;3.63;;;1.75;;
20423;SDS011;10371;49.042;8.002;2023-04-01T05:15:41;5.40;;;2.00;;
20423;SDS011;10371;49.042;8.002;2023-04-01T05:16:42;4.10;;;2.00;;
20423;SDS011;10371;49.042;8.002;2023-04-01T05:17:42;4.33;;;1.53;;
20423;SDS011;10371;49.042;8.002;2023-04-01T05:18:42;3.37;;;1.60;;
20423;SDS011;10371;49.042;8.002;2023-04-01T05:19:43;4.53;;;1.50;;
20423;SDS011;10371;49.042;8.002;2023-04-01T05:20:47;3.57;;;1.70;;
20423;SDS011;10371;49.042;8.002;2023-04-01T05:21:51;3.10;;;1.70;;
20423;SDS011;10371;49.042;8.002;2023-04-01T05:22:56;4.70;;;2.17;;
20423;SDS011;10371;49.042;8.002;2023-04-01T05:23:56;4.30;;;1.90;;
20423;SDS011;10371;49.042;8.002;2023-04-01T05:24:57;2.67;;;1.60;;
20423;SDS011;10371;49.042;8.002;2023-04-01T05:25:57;2.33;;;1.42;;
20423;SDS011;10371;49.042;8.002;2023-04-01T05:26:58;1.73;;;1.20;;
20423;SDS011;10371;49.042;8.002;2023-04-01T05:27:58;3.10;;;1.50;;
20423;SDS011;10371;49.042;8.002;2023-04-01T05:28:59;2.40;;;1.37;;
20423;SDS011;10371;49.042;8.002;2023-04-01T05:29:59;2.67;;;1.50;;
20423;SDS011;10371;49.042;8.002;2023-04-01T05:30:59;2.50;;;1.50;;
20423;SDS011;10371;49.042;8.002;2023-04-01T05:32:00;3.63;;;1.40;;
20423;SDS011;10371;49.042;8.002;2023-04-01T05:33:01;3.37;;;1.63;;
20423;SDS011;10371;49.042;8.002;2023-04-01T05:34:01;4.50;;;1.70;;
20423;SDS011;10371;49.042;8.002;2023-04-01T05:35:01;3.03;;;1.63;;
20423;SDS011;10371;49.042;8.002;2023-04-01T05:36:05;3.43;;;1.37;;
20423;SDS011;10371;49.042;8.002;2023-04-01T05:37:10;2.60;;;1.40;;
20423;SDS011;10371;49.042;8.002;2023-04-01T05:38:10;4.23;;;1.53;;
20423;SDS011;10371;49.042;8.002;2023-04-01T05:39:10;3.07;;;1.43;;
20423;SDS011;10371;49.042;8.002;2023-04-01T05:40:11;2.00;;;1.33;;
20423;SDS011;10371;49.042;8.002;2023-04-01T05:41:11;2.90;;;1.40;;
20423;SDS011;10371;49.042;8.002;2023-04-01T05:42:12;3.67;;;1.53;;
20423;SDS011;10371;49.042;8.002;2023-04-01T05:43:12;3.73;;;1.57;;
20423;SDS011;10371;49.042;8.002;2023-04-01T05:44:13;3.15;;;1.20;;
20423;SDS011;10371;49.042;8.002;2023-04-01T05:45:13;3.80;;;1.30;;
20423;SDS011;10371;49.042;8.002;2023-04-01T05:46:15;2.03;;;1.10;;
20423;SDS011;10371;49.042;8.002;2023-04-01T05:47:15;1.57;;;0.90;;
20423;SDS011;10371;49.042;8.002;2023-04-01T05:48:16;2.77;;;1.20;;
20423;SDS011;10371;49.042;8.002;2023-04-01T05:49:16;3.20;;;1.40;;
20423;SDS011;10371;49.042;8.002;2023-04-01T05:50:16;5.57;;;1.57;;
20423;SDS011;10371;49.042;8.002;2023-04-01T05:51:17;3.67;;;1.27;;
20423;SDS011;10371;49.042;8.002;2023-04-01T05:52:17;2.53;;;1.37;;
20423;SDS011;10371;49.042;8.002;2023-04-01T05:53:17;4.23;;;1.80;;
20423;SDS011;10371;49.042;8.002;2023-04-01T05:54:18;2.90;;;1.30;;
20423;SDS011;10371;49.042;8.002;2023-04-01T05:55:19;2.83;;;1.20;;
20423;SDS011;10371;49.042;8.002;2023-04-01T05:56:20;2.47;;;1.50;;
20423;SDS011;10371;49.042;8.002;2023-04-01T05:57:20;3.42;;;1.35;;
20423;SDS011;10371;49.042;8.002;2023-04-01T05:58:21;2.83;;;1.30;;
20423;SDS011;10371;49.042;8.002;2023-04-01T05:59:21;2.88;;;1.40;;
20423;SDS011;10371;49.042;8.002;2023-04-01T06:00:21;2.47;;;1.10;;
20423;SDS011;10371;49.042;8.002;2023-04-01T06:01:21;3.63;;;1.40;;
20423;SDS011;10371;49.042;8.002;2023-04-01T06:02:22;3.47;;;1.70;;
20423;SDS011;10371;49.042;8.002;2023-04-01T06:03:22;1.90;;;1.13;;
20423;SDS011;10371;49.042;8.002;2023-04-01T06:04:22;2.33;;;1.43;;
20423;SDS011;10371;49.042;8.002;2023-04-01T06:05:24;2.90;;;1.50;;
20423;SDS011;10371;49.042;8.002;2023-04-01T06:06:29;5.00;;;1.50;;
20423;SDS011;10371;49.042;8.002;2023-04-01T06:07:30;5.73;;;2.00;;
20423;SDS011;10371;49.042;8.002;2023-04-01T06:08:31;2.63;;;1.50;;
20423;SDS011;10371;49.042;8.002;2023-04-01T06:09:31;2.33;;;1.37;;
20423;SDS011;10371;49.042;8.002;2023-04-01T06:10:41;2.37;;;1.20;;
20423;SDS011;10371;49.042;8.002;2023-04-01T06:13:12;2.77;;;1.37;;
20423;SDS011;10371;49.042;8.002;2023-04-01T06:17:06;2.13;;;1.43;;
20423;SDS011;10371;49.042;8.002;2023-04-01T06:18:42;3.13;;;1.33;;
20423;SDS011;10371;49.042;8.002;2023-04-01T06:23:08;1.90;;;1.40;;
20423;SDS011;10371;49.042;8.002;2023-04-01T06:29:17;1.60;;;1.17;;
20423;SDS011;10371;49.042;8.002;2023-04-01T06:30:32;2.93;;;1.60;;
20423;SDS011;10371;49.042;8.002;2023-04-01T06:36:08;3.23;;;1.40;;
20423;SDS011;10371;49.042;8.002;2023-04-01T06:41:53;2.17;;;1.13;;
20423;SDS011;10371;49.042;8.002;2023-04-01T06:45:35;3.67;;;1.20;;
20423;SDS011;10371;49.042;8.002;2023-04-01T06:54:23;3.03;;;1.07;;
20423;SDS011;10371;49.042;8.002;2023-04-01T06:55:38;2.50;;;1.37;;
20423;SDS011;10371;49.042;8.002;2023-04-01T06:56:44;2.40;;;1.10;;
20423;SDS011;10371;49.042;8.002;2023-04-01T06:57:49;1.77;;;1.10;;
20423;SDS011;10371;49.042;8.002;2023-04-01T06:58:54;2.33;;;1.50;;
20423;SDS011;10371;49.042;8.002;2023-04-01T06:59:59;2.93;;;1.50;;
20423;SDS011;10371;49.042;8.002;2023-04-01T07:01:06;1.10;;;0.90;;
20423;SDS011;10371;49.042;8.002;2023-04-01T07:03:19;2.93;;;2.10;;
20423;SDS011;10371;49.042;8.002;2023-04-01T07:04:24;3.63;;;2.20;;